createdAt,value
2022-10-18T00:02:13.530Z,10.65
2022-10-18T00:04:40.550Z,7.63
2022-10-18T00:07:07.247Z,8.85
2022-10-18T00:09:33.891Z,10.50
2022-10-18T00:12:00.410Z,9.63
2022-10-18T00:14:27.098Z,8.30
2022-10-18T00:16:53.396Z,9.57
2022-10-18T00:19:19.854Z,6.93
2022-10-18T00:21:46.157Z,12.50
2022-10-18T00:24:12.581Z,5.45
2022-10-18T00:26:38.887Z,4.88
2022-10-18T00:29:06.185Z,7.30
2022-10-18T00:31:35.570Z,6.00
2022-10-18T00:34:04.756Z,7.93
2022-10-18T00:36:32.938Z,12.80
2022-10-18T00:38:59.401Z,15.02
2022-10-18T00:41:29.443Z,16.45
2022-10-18T00:44:04.986Z,12.30
2022-10-18T00:49:02.173Z,8.32
2022-10-18T00:51:32.894Z,6.22
2022-10-18T00:53:59.326Z,10.55
2022-10-18T00:56:26.339Z,8.32
2022-10-18T00:58:52.860Z,11.90
2022-10-18T01:01:22.137Z,5.95
2022-10-18T01:03:52.066Z,8.63
2022-10-18T01:06:18.604Z,8.52
2022-10-18T01:08:53.787Z,6.32
2022-10-18T01:11:32.014Z,8.38
2022-10-18T01:14:30.650Z,8.52
2022-10-18T01:17:08.070Z,9.32
2022-10-18T01:20:02.699Z,14.65
2022-10-18T01:22:37.661Z,5.80
2022-10-18T01:25:23.625Z,5.78
2022-10-18T01:28:13.152Z,17.50
2022-10-18T01:30:41.212Z,13.98
2022-10-18T01:33:27.415Z,7.75
2022-10-18T01:36:07.965Z,6.13
2022-10-18T01:38:36.570Z,6.90
2022-10-18T01:41:04.743Z,5.15
2022-10-18T01:43:34.016Z,8.98
2022-10-18T01:46:00.825Z,14.98
2022-10-18T01:48:29.574Z,10.27
2022-10-18T01:50:56.718Z,7.05
2022-10-18T01:53:31.857Z,8.98
2022-10-18T01:56:16.457Z,5.65
2022-10-18T01:58:57.042Z,7.22
2022-10-18T02:01:49.736Z,7.72
2022-10-18T02:04:27.483Z,12.63
2022-10-18T02:07:02.973Z,5.93
2022-10-18T02:12:10.932Z,7.53
2022-10-18T02:14:38.679Z,8.82
2022-10-18T02:17:09.769Z,13.07
2022-10-18T02:19:41.477Z,17.38
2022-10-18T02:22:10.755Z,4.95
2022-10-18T02:24:42.983Z,13.68
2022-10-18T02:27:10.028Z,9.43
2022-10-18T02:29:36.837Z,8.13
2022-10-18T02:32:16.520Z,12.80
2022-10-18T02:34:49.206Z,7.57
2022-10-18T02:37:17.580Z,18.67
2022-10-18T02:39:48.271Z,11.05
2022-10-18T02:42:15.727Z,9.68
2022-10-18T02:44:42.144Z,9.27
2022-10-18T02:47:10.725Z,11.82
2022-10-18T02:49:37.150Z,6.43
2022-10-18T02:52:04.019Z,8.63
2022-10-18T02:54:30.534Z,6.50
2022-10-18T02:56:56.868Z,13.07
2022-10-18T02:59:23.387Z,8.73
2022-10-18T03:01:49.765Z,6.28
2022-10-18T03:04:16.288Z,11.77
2022-10-18T03:06:43.004Z,6.32
2022-10-18T03:09:09.711Z,10.43
2022-10-18T03:11:36.111Z,8.65
2022-10-18T03:14:02.578Z,11.05
2022-10-18T03:16:29.028Z,5.97
2022-10-18T03:18:55.676Z,7.72
2022-10-18T03:21:22.035Z,7.05
2022-10-18T03:23:48.457Z,8.20
2022-10-18T03:26:14.794Z,7.07
2022-10-18T03:28:41.627Z,10.52
2022-10-18T03:31:08.218Z,9.00
2022-10-18T03:33:34.757Z,6.32
2022-10-18T03:36:01.103Z,7.60
2022-10-18T03:38:27.660Z,11.10
2022-10-18T03:40:54.042Z,11.60
2022-10-18T03:43:20.500Z,7.53
2022-10-18T03:45:46.936Z,9.15
2022-10-18T03:48:13.354Z,7.75
2022-10-18T03:50:39.725Z,11.52
2022-10-18T03:53:06.357Z,10.13
2022-10-18T03:55:32.798Z,7.43
2022-10-18T03:57:59.170Z,10.15
2022-10-18T04:00:25.962Z,9.77
2022-10-18T04:02:55.089Z,7.53
2022-10-18T04:05:23.171Z,7.47
2022-10-18T04:07:50.412Z,14.05
2022-10-18T04:10:16.809Z,9.32
2022-10-18T04:12:43.340Z,9.13
2022-10-18T04:15:10.374Z,9.02
2022-10-18T04:17:36.820Z,10.90
2022-10-18T04:20:03.356Z,7.30
2022-10-18T04:22:29.758Z,11.02
2022-10-18T04:24:56.391Z,8.57
2022-10-18T04:27:22.893Z,7.90
2022-10-18T04:29:49.274Z,8.32
2022-10-18T04:32:15.865Z,8.70
2022-10-18T04:37:09.534Z,7.03
2022-10-18T04:39:35.869Z,10.85
2022-10-18T04:42:02.478Z,5.85
2022-10-18T04:44:29.049Z,7.28
2022-10-18T04:46:55.761Z,6.40
2022-10-18T04:49:22.080Z,6.60
2022-10-18T04:51:48.713Z,8.77
2022-10-18T04:54:15.098Z,6.13
2022-10-18T04:56:41.535Z,9.13
2022-10-18T04:59:07.995Z,12.15
2022-10-18T05:01:34.398Z,6.85
2022-10-18T05:04:01.003Z,7.00
2022-10-18T05:06:27.477Z,6.20
2022-10-18T05:08:54.964Z,7.20
2022-10-18T05:11:21.614Z,7.50
2022-10-18T05:13:50.175Z,5.15
2022-10-18T05:16:17.553Z,5.45
2022-10-18T05:18:43.918Z,6.18
2022-10-18T05:21:10.360Z,5.47
2022-10-18T05:23:36.651Z,9.05
2022-10-18T05:26:05.974Z,7.82
2022-10-18T05:28:39.790Z,6.57
2022-10-18T05:31:09.036Z,6.32
2022-10-18T05:33:35.954Z,5.65
2022-10-18T05:36:02.403Z,6.82
2022-10-18T05:38:29.131Z,9.32
2022-10-18T05:40:55.693Z,5.03
2022-10-18T05:43:22.273Z,5.65
2022-10-18T05:45:51.352Z,5.85
2022-10-18T05:48:18.485Z,6.50
2022-10-18T05:50:45.365Z,7.93
2022-10-18T05:53:18.345Z,9.93
2022-10-18T05:56:01.693Z,5.82
2022-10-18T05:58:28.148Z,8.88
2022-10-18T06:00:54.590Z,6.63
2022-10-18T06:03:21.267Z,6.03
2022-10-18T06:05:47.634Z,7.30
2022-10-18T06:08:14.102Z,3.63
2022-10-18T06:10:40.847Z,6.57
2022-10-18T06:13:07.464Z,5.45
2022-10-18T06:15:34.149Z,6.30
2022-10-18T06:18:00.800Z,7.88
2022-10-18T06:20:27.172Z,6.90
2022-10-18T06:22:53.580Z,6.55
2022-10-18T06:25:19.935Z,8.57
2022-10-18T06:27:46.390Z,6.22
2022-10-18T06:30:12.755Z,3.85
2022-10-18T06:32:39.151Z,8.45
2022-10-18T06:35:06.167Z,5.85
2022-10-18T06:37:32.731Z,6.97
2022-10-18T06:39:59.310Z,5.32
2022-10-18T06:42:25.782Z,8.50
2022-10-18T06:44:52.210Z,8.43
2022-10-18T06:47:18.526Z,5.28
2022-10-18T06:49:44.995Z,6.13
2022-10-18T06:52:11.323Z,5.40
2022-10-18T06:54:37.683Z,5.28
2022-10-18T06:57:04.107Z,6.88
2022-10-18T06:59:31.424Z,4.40
2022-10-18T07:01:58.444Z,4.40
2022-10-18T07:04:28.361Z,4.28
2022-10-18T07:06:54.945Z,6.93
2022-10-18T07:09:21.254Z,3.03
2022-10-18T07:11:47.578Z,3.35
2022-10-18T07:14:16.398Z,2.33
2022-10-18T07:16:42.939Z,3.05
2022-10-18T07:19:09.283Z,2.03
2022-10-18T07:21:35.982Z,2.80
2022-10-18T07:24:02.513Z,1.55
2022-10-18T07:26:31.298Z,1.17
2022-10-18T07:29:15.516Z,1.33
2022-10-18T07:31:41.948Z,3.03
2022-10-18T07:34:11.725Z,1.42
2022-10-18T07:36:38.282Z,1.88
2022-10-18T07:39:05.806Z,1.88
2022-10-18T07:41:32.758Z,9.00
2022-10-18T07:44:00.281Z,1.02
2022-10-18T07:46:26.765Z,2.05
2022-10-18T07:48:54.649Z,1.83
2022-10-18T07:51:21.707Z,1.02
2022-10-18T07:53:48.413Z,2.55
2022-10-18T07:56:17.258Z,1.13
2022-10-18T07:58:44.389Z,0.77
2022-10-18T08:01:11.802Z,2.83
2022-10-18T08:03:38.689Z,2.40
2022-10-18T08:06:07.085Z,1.38
2022-10-18T08:08:33.680Z,2.10
2022-10-18T08:11:08.790Z,0.60
2022-10-18T08:13:35.623Z,1.65
2022-10-18T08:16:10.844Z,1.42
2022-10-18T08:18:38.018Z,2.15
2022-10-18T08:21:07.011Z,2.25
2022-10-18T08:23:34.441Z,1.13
2022-10-18T08:26:02.119Z,2.13
2022-10-18T08:28:29.566Z,1.55
2022-10-18T08:30:56.107Z,2.05
2022-10-18T08:33:23.506Z,0.40
2022-10-18T08:35:57.808Z,1.63
2022-10-18T08:38:24.404Z,2.20
2022-10-18T08:40:51.636Z,0.63
2022-10-18T08:43:30.369Z,1.33
2022-10-18T08:45:57.401Z,1.80
2022-10-18T08:48:44.072Z,1.70
2022-10-18T08:51:27.556Z,1.40
2022-10-18T08:54:15.656Z,3.53
2022-10-18T08:56:46.968Z,1.23
2022-10-18T08:59:13.969Z,0.50
2022-10-18T09:02:12.865Z,1.25
2022-10-18T09:05:12.830Z,0.60
2022-10-18T09:08:03.475Z,1.45
2022-10-18T09:10:35.797Z,1.80
2022-10-18T09:13:02.128Z,0.82
2022-10-18T09:15:49.603Z,0.85
2022-10-18T09:18:32.039Z,0.73
2022-10-18T09:21:14.559Z,1.23
2022-10-18T09:24:05.460Z,0.57
2022-10-18T09:26:45.571Z,1.38
2022-10-18T09:33:08.463Z,1.52
2022-10-18T09:36:03.429Z,2.13
2022-10-18T09:38:33.444Z,3.45
2022-10-18T09:41:07.236Z,2.67
2022-10-18T09:43:56.573Z,10.52
2022-10-18T09:46:30.731Z,2.75
2022-10-18T09:49:06.329Z,2.33
2022-10-18T09:51:39.089Z,3.50
2022-10-18T09:54:24.401Z,5.25
2022-10-18T09:56:57.300Z,2.67
2022-10-18T10:02:22.298Z,2.00
2022-10-18T10:04:50.341Z,3.58
2022-10-18T10:07:31.046Z,4.20
2022-10-18T10:10:14.114Z,2.83
2022-10-18T10:12:41.543Z,2.97
2022-10-18T10:15:23.382Z,2.05
2022-10-18T10:18:05.513Z,3.15
2022-10-18T10:20:44.054Z,3.38
2022-10-18T10:23:22.843Z,4.60
2022-10-18T10:25:54.683Z,5.72
2022-10-18T10:28:25.904Z,2.45
2022-10-18T10:30:52.469Z,3.47
2022-10-18T10:33:38.685Z,1.90
2022-10-18T10:36:16.056Z,1.98
2022-10-18T10:38:42.731Z,1.95
2022-10-18T10:41:21.500Z,1.77
2022-10-18T10:43:50.079Z,2.67
2022-10-18T10:46:18.989Z,2.22
2022-10-18T10:48:49.608Z,1.60
2022-10-18T10:51:28.523Z,1.83
2022-10-18T10:54:01.188Z,11.07
2022-10-18T10:56:35.233Z,1.52
2022-10-18T10:59:09.951Z,1.63
2022-10-18T11:01:36.623Z,1.90
2022-10-18T11:04:24.963Z,2.00
2022-10-18T11:07:09.944Z,1.20
2022-10-18T11:09:48.356Z,1.57
2022-10-18T11:12:30.880Z,1.00
2022-10-18T11:15:00.978Z,1.20
2022-10-18T11:17:39.734Z,4.13
2022-10-18T11:20:20.235Z,2.22
2022-10-18T11:22:58.860Z,2.53
2022-10-18T11:25:40.526Z,0.90
2022-10-18T11:28:26.661Z,1.42
2022-10-18T11:31:12.637Z,1.35
2022-10-18T11:39:53.839Z,1.33
2022-10-18T11:42:47.752Z,2.03
2022-10-18T11:45:45.214Z,1.23
2022-10-18T11:48:24.642Z,0.70
2022-10-18T11:51:04.486Z,3.13
2022-10-18T11:53:51.029Z,1.13
2022-10-18T11:56:40.756Z,0.98
2022-10-18T11:59:24.579Z,0.70
2022-10-18T12:02:19.553Z,1.70
2022-10-18T12:04:58.431Z,1.10
2022-10-18T12:07:52.446Z,0.43
2022-10-18T12:10:31.643Z,0.45
2022-10-18T12:13:18.287Z,0.70
2022-10-18T12:15:45.497Z,3.15
2022-10-18T12:18:17.208Z,0.50
2022-10-18T12:20:49.096Z,0.93
2022-10-18T12:23:20.252Z,2.10
2022-10-18T12:25:50.985Z,0.57
2022-10-18T12:28:38.410Z,0.77
2022-10-18T12:31:23.597Z,1.42
2022-10-18T12:33:54.118Z,0.30
2022-10-18T12:36:47.748Z,0.70
2022-10-18T12:39:38.737Z,0.40
2022-10-18T12:45:00.178Z,1.55
2022-10-18T12:47:29.192Z,0.40
2022-10-18T12:50:01.955Z,1.10
2022-10-18T12:52:31.033Z,0.60
2022-10-18T12:55:20.682Z,1.13
2022-10-18T12:58:13.358Z,1.27
2022-10-18T13:00:39.722Z,1.48
2022-10-18T13:03:11.789Z,1.02
2022-10-18T13:05:55.959Z,0.82
2022-10-18T13:08:31.969Z,2.22
2022-10-18T13:11:01.601Z,1.05
2022-10-18T13:13:53.054Z,1.30
2022-10-18T13:16:22.372Z,0.93
2022-10-18T13:19:08.212Z,0.80
2022-10-18T13:24:26.646Z,0.68
2022-10-18T13:27:31.507Z,0.82
2022-10-18T13:30:25.822Z,1.00
2022-10-18T13:33:07.304Z,0.80
2022-10-18T13:35:44.368Z,1.35
2022-10-18T13:38:26.986Z,2.25
2022-10-18T13:41:20.565Z,2.97
2022-10-18T13:43:52.998Z,2.28
2022-10-18T13:46:23.640Z,3.72
2022-10-18T13:48:59.261Z,2.90
2022-10-18T13:52:03.281Z,1.05
2022-10-18T13:54:44.930Z,1.20
2022-10-18T13:57:22.494Z,1.85
2022-10-18T14:00:19.948Z,1.58
2022-10-18T14:03:02.412Z,1.10
2022-10-18T14:05:51.027Z,1.98
2022-10-18T14:08:44.656Z,7.38
2022-10-18T14:11:10.908Z,2.08
2022-10-18T14:13:52.354Z,1.92
2022-10-18T14:16:33.397Z,1.42
2022-10-18T14:19:14.493Z,2.65
2022-10-18T14:21:49.029Z,2.67
2022-10-18T14:24:20.753Z,1.87
2022-10-18T14:26:47.662Z,3.10
2022-10-18T14:29:19.637Z,2.20
2022-10-18T14:31:53.341Z,2.58
2022-10-18T14:34:26.325Z,2.08
2022-10-18T14:36:53.024Z,3.60
2022-10-18T14:39:23.818Z,1.67
2022-10-18T14:41:53.127Z,3.17
2022-10-18T14:44:24.626Z,5.97
2022-10-18T14:46:51.989Z,3.55
2022-10-18T14:49:20.191Z,5.10
2022-10-18T14:51:53.816Z,2.47
2022-10-18T14:54:26.195Z,1.75
2022-10-18T14:56:55.924Z,1.80
2022-10-18T14:59:26.629Z,2.78
2022-10-18T15:02:00.899Z,2.22
2022-10-18T15:04:29.104Z,3.08
2022-10-18T15:06:55.823Z,2.63
2022-10-18T15:09:24.361Z,3.05
2022-10-18T15:11:51.641Z,1.90
2022-10-18T15:14:19.890Z,1.70
2022-10-18T15:16:48.815Z,3.10
2022-10-18T15:19:15.257Z,2.03
2022-10-18T15:25:16.495Z,4.22
2022-10-18T15:27:49.454Z,2.97
2022-10-18T15:30:39.368Z,2.03
2022-10-18T15:33:08.167Z,2.05
2022-10-18T15:35:36.579Z,2.03
2022-10-18T15:38:24.644Z,3.17
2022-10-18T15:40:51.378Z,3.95
2022-10-18T15:43:23.988Z,3.63
2022-10-18T15:45:52.796Z,3.83
2022-10-18T15:48:25.972Z,2.42
2022-10-18T15:51:00.461Z,3.70
2022-10-18T15:53:35.018Z,4.00
2022-10-18T15:56:13.235Z,3.30
2022-10-18T15:58:44.443Z,4.03
2022-10-18T16:01:21.007Z,4.82
2022-10-18T16:03:48.645Z,5.00
2022-10-18T16:06:18.168Z,3.15
2022-10-18T16:08:50.627Z,5.50
2022-10-18T16:11:27.406Z,3.63
2022-10-18T16:13:57.794Z,5.57
2022-10-18T16:16:28.313Z,3.10
2022-10-18T16:18:55.730Z,5.45
2022-10-18T16:21:24.574Z,7.55
2022-10-18T16:23:51.435Z,8.85
2022-10-18T16:26:19.717Z,7.13
2022-10-18T16:28:47.010Z,4.65
2022-10-18T16:31:22.267Z,7.22
2022-10-18T16:33:49.690Z,7.22
2022-10-18T16:36:18.379Z,5.40
2022-10-18T16:38:45.216Z,3.70
2022-10-18T16:41:12.313Z,3.55
2022-10-18T16:43:39.959Z,6.32
2022-10-18T16:46:07.534Z,7.20
2022-10-18T16:48:34.219Z,5.63
2022-10-18T16:51:01.321Z,7.25
2022-10-18T16:53:27.844Z,5.07
2022-10-18T16:55:59.810Z,6.68
2022-10-18T16:58:28.527Z,42.38
2022-10-18T17:00:55.698Z,34.33
2022-10-18T17:03:23.329Z,19.50
2022-10-18T17:05:49.781Z,15.10
2022-10-18T17:08:20.813Z,20.80
2022-10-18T17:10:49.876Z,6.97
2022-10-18T17:13:16.577Z,7.85
2022-10-18T17:15:43.274Z,6.53
2022-10-18T17:18:15.461Z,6.65
2022-10-18T17:20:43.250Z,8.10
2022-10-18T17:23:10.585Z,9.50
2022-10-18T17:25:46.274Z,4.13
2022-10-18T17:28:24.133Z,9.20
2022-10-18T17:30:50.629Z,6.38
2022-10-18T17:33:17.444Z,17.80
2022-10-18T17:35:44.714Z,14.75
2022-10-18T17:38:11.078Z,8.82
2022-10-18T17:40:41.142Z,8.20
2022-10-18T17:43:07.652Z,18.20
2022-10-18T17:45:34.095Z,7.18
2022-10-18T17:48:00.523Z,11.98
2022-10-18T17:50:26.983Z,9.90
2022-10-18T17:52:53.320Z,11.15
2022-10-18T17:55:19.635Z,8.80
2022-10-18T17:57:46.088Z,11.45
2022-10-18T18:00:13.699Z,9.25
2022-10-18T18:02:41.843Z,11.90
2022-10-18T18:05:08.815Z,9.30
2022-10-18T18:07:35.405Z,10.82
2022-10-18T18:10:02.676Z,8.57
2022-10-18T18:12:29.459Z,6.63
2022-10-18T18:14:55.997Z,10.13
2022-10-18T18:17:33.613Z,10.52
2022-10-18T18:20:01.154Z,5.80
2022-10-18T18:22:27.513Z,19.02
2022-10-18T18:24:54.109Z,31.35
2022-10-18T18:30:11.036Z,89.63
2022-10-18T18:32:37.747Z,111.57
2022-10-18T18:35:04.365Z,37.83
2022-10-18T18:37:30.769Z,34.78
2022-10-18T18:39:57.424Z,24.00
2022-10-18T18:42:24.027Z,13.85
2022-10-18T18:44:50.357Z,16.10
2022-10-18T18:49:43.098Z,52.05
2022-10-18T18:52:09.629Z,72.43
2022-10-18T18:54:35.988Z,83.78
2022-10-18T18:57:02.661Z,58.97
2022-10-18T18:59:29.049Z,59.35
2022-10-18T19:01:55.554Z,14.55
2022-10-18T19:04:21.950Z,31.02
2022-10-18T19:06:48.708Z,60.35
2022-10-18T19:09:16.929Z,64.07
2022-10-18T19:11:43.292Z,27.23
2022-10-18T19:14:10.279Z,22.77
2022-10-18T19:16:38.780Z,51.97
2022-10-18T19:19:13.333Z,22.48
2022-10-18T19:21:50.097Z,20.67
2022-10-18T19:24:16.493Z,16.45
2022-10-18T19:26:48.834Z,11.32
2022-10-18T19:29:20.815Z,41.58
2022-10-18T19:31:47.922Z,10.35
2022-10-18T19:34:16.228Z,20.10
2022-10-18T19:36:45.040Z,8.48
2022-10-18T19:39:18.289Z,9.65
2022-10-18T19:41:46.014Z,7.00
2022-10-18T19:44:12.940Z,19.30
2022-10-18T19:46:39.442Z,16.10
2022-10-18T19:49:05.834Z,6.60
2022-10-18T19:51:32.410Z,6.57
2022-10-18T19:53:58.998Z,16.05
2022-10-18T19:56:27.571Z,11.40
2022-10-18T19:58:54.452Z,25.63
2022-10-18T20:01:20.864Z,11.95
2022-10-18T20:03:47.504Z,9.93
2022-10-18T20:06:14.688Z,14.88
2022-10-18T20:11:12.001Z,16.35
2022-10-18T20:13:38.815Z,13.95
2022-10-18T20:16:07.245Z,18.85
2022-10-18T20:18:33.802Z,22.45
2022-10-18T20:21:00.253Z,26.52
2022-10-18T20:23:26.739Z,10.32
2022-10-18T20:26:01.081Z,8.30
2022-10-18T20:28:28.499Z,12.18
2022-10-18T20:31:06.966Z,26.33
2022-10-18T20:33:34.275Z,17.20
2022-10-18T20:36:15.248Z,13.75
2022-10-18T20:38:43.748Z,9.65
2022-10-18T20:41:22.685Z,14.52
2022-10-18T20:44:00.618Z,19.30
2022-10-18T20:46:29.791Z,9.55
2022-10-18T20:48:56.489Z,8.27
2022-10-18T20:51:23.993Z,12.25
2022-10-18T20:53:50.815Z,16.38
2022-10-18T20:56:23.126Z,17.13
2022-10-18T20:58:52.053Z,5.50
2022-10-18T21:01:21.298Z,26.83
2022-10-18T21:03:49.762Z,27.83
2022-10-18T21:06:29.789Z,33.70
2022-10-18T21:08:58.377Z,28.80
2022-10-18T21:11:26.388Z,26.77
2022-10-18T21:13:55.304Z,28.17
2022-10-18T21:16:22.138Z,23.80
2022-10-18T21:18:49.045Z,35.17
2022-10-18T21:21:18.112Z,16.02
2022-10-18T21:23:45.322Z,19.92
2022-10-18T21:26:15.097Z,23.08
2022-10-18T21:28:41.664Z,20.42
2022-10-18T21:31:13.125Z,14.93
2022-10-18T21:33:40.948Z,29.35
2022-10-18T21:36:08.140Z,62.78
2022-10-18T21:38:34.551Z,29.92
2022-10-18T21:41:01.352Z,24.52
2022-10-18T21:43:28.155Z,19.55
2022-10-18T21:45:59.428Z,17.55
2022-10-18T21:48:27.018Z,18.65
2022-10-18T21:50:53.992Z,11.90
2022-10-18T21:53:21.464Z,9.10
2022-10-18T21:55:48.012Z,21.27
2022-10-18T21:58:15.118Z,9.68
2022-10-18T22:00:41.578Z,16.88
2022-10-18T22:03:08.745Z,25.65
2022-10-18T22:05:35.190Z,12.70
2022-10-18T22:08:02.051Z,9.85
2022-10-18T22:10:28.831Z,16.58
2022-10-18T22:12:55.518Z,7.32
2022-10-18T22:15:21.983Z,22.05
2022-10-18T22:17:48.381Z,5.68
2022-10-18T22:20:14.907Z,7.53
2022-10-18T22:22:41.700Z,16.17
2022-10-18T22:25:08.511Z,9.65
2022-10-18T22:27:35.462Z,19.35
2022-10-18T22:30:02.092Z,29.38
2022-10-18T22:32:28.429Z,16.25
2022-10-18T22:34:54.837Z,20.25
2022-10-18T22:37:21.151Z,20.83
2022-10-18T22:39:47.501Z,16.02
2022-10-18T22:42:14.176Z,14.20
2022-10-18T22:44:40.623Z,22.83
2022-10-18T22:47:06.955Z,18.67
2022-10-18T22:49:33.355Z,24.10
2022-10-18T22:51:59.767Z,49.47
2022-10-18T22:54:26.102Z,14.57
2022-10-18T22:56:52.500Z,8.18
2022-10-18T22:59:18.927Z,13.10
2022-10-18T23:01:45.439Z,14.88
2022-10-18T23:04:11.855Z,5.65
2022-10-18T23:06:39.914Z,10.90
2022-10-18T23:09:08.963Z,29.08
2022-10-18T23:11:36.677Z,16.75
2022-10-18T23:14:05.140Z,8.40
2022-10-18T23:16:31.861Z,13.52
2022-10-18T23:18:59.011Z,26.60
2022-10-18T23:21:27.497Z,19.90
2022-10-18T23:23:54.436Z,10.27
2022-10-18T23:26:23.262Z,27.92
2022-10-18T23:28:51.909Z,4.93
2022-10-18T23:31:26.981Z,16.67
2022-10-18T23:33:55.289Z,8.52
2022-10-18T23:36:22.951Z,31.45
2022-10-18T23:38:50.053Z,6.38
2022-10-18T23:41:17.379Z,10.35
2022-10-18T23:43:44.399Z,19.27
2022-10-18T23:46:12.218Z,19.00
2022-10-18T23:48:38.740Z,8.38
2022-10-18T23:51:05.741Z,8.48
2022-10-18T23:53:33.520Z,10.52
2022-10-18T23:56:08.581Z,2.47
